Terminal Aerodrome Forecast
Issued by NWS Louisville, KY

Home | Current Version | Previous Version | Text Only | Print | Product List | Glossary On
Versions: 1 2 3 4 5 6 7 8 9 10 11 12 13 14
000
FTUS43 KLMK 211739
TAFLEX
TAF
KLEX 211739Z 2118/2218 35010KT P6SM VCSH BKN035
     FM220000 02015KT P6SM -SHRA OVC007
     FM220300 02016G21KT 4SM SHRA OVC005
     FM221200 05012KT 2SM SHRA OVC003
     FM221700 04008KT 6SM SHRA OVC008=

USA.gov is the U.S. government's official web portal to all federal, state and local government web resources and services.